createdAt,value
2018-10-11T00:00:52.854Z,0
2018-10-11T00:01:52.846Z,0
2018-10-11T00:02:53.337Z,0
2018-10-11T00:03:52.826Z,0
2018-10-11T00:04:52.820Z,0
2018-10-11T00:05:53.063Z,0
2018-10-11T00:06:53.063Z,0
2018-10-11T00:07:53.046Z,0
2018-10-11T00:08:53.039Z,0
2018-10-11T00:09:52.780Z,0
2018-10-11T00:10:52.774Z,0
2018-10-11T00:11:53.022Z,0
2018-10-11T00:12:53.010Z,0
2018-10-11T00:13:53.004Z,0
2018-10-11T00:14:52.996Z,0
2018-10-11T00:15:52.739Z,0
2018-10-11T00:16:52.727Z,0
2018-10-11T00:17:52.468Z,0
2018-10-11T00:18:52.971Z,0
2018-10-11T00:19:52.509Z,0
2018-10-11T00:20:52.703Z,0
2018-10-11T00:21:52.950Z,0
2018-10-11T00:22:52.937Z,0
2018-10-11T00:23:52.927Z,0
2018-10-11T00:24:52.918Z,0
2018-10-11T00:25:52.911Z,0
2018-10-11T00:26:52.914Z,0
2018-10-11T00:27:52.893Z,0
2018-10-11T00:28:52.893Z,0
2018-10-11T00:29:52.879Z,0
2018-10-11T00:30:53.529Z,0
2018-10-11T00:31:52.636Z,0
2018-10-11T00:32:52.609Z,0
2018-10-11T00:33:53.108Z,0
2018-10-11T00:34:52.593Z,0
2018-10-11T00:35:52.588Z,0
2018-10-11T00:36:52.838Z,0
2018-10-11T00:37:52.823Z,0
2018-10-11T00:38:52.822Z,0
2018-10-11T00:39:52.810Z,0
2018-10-11T00:40:52.797Z,0
2018-10-11T00:41:52.538Z,0
2018-10-11T00:42:52.787Z,0
2018-10-11T00:43:52.531Z,0
2018-10-11T00:44:52.773Z,0
2018-10-11T00:45:52.756Z,0
2018-10-11T00:46:52.751Z,0
2018-10-11T00:47:52.748Z,0
2018-10-11T00:48:52.483Z,0
2018-10-11T00:49:52.728Z,0
2018-10-11T00:50:52.726Z,0
2018-10-11T00:51:52.714Z,0
2018-10-11T00:52:52.459Z,0
2018-10-11T00:53:52.698Z,0
2018-10-11T00:54:52.695Z,0
2018-10-11T00:55:52.690Z,0
2018-10-11T00:56:52.675Z,0
2018-10-11T00:57:52.678Z,0
2018-10-11T00:58:52.412Z,0
2018-10-11T00:59:52.651Z,0
2018-10-11T01:00:52.649Z,0
2018-10-11T01:01:52.393Z,0
2018-10-11T01:02:52.632Z,0
2018-10-11T01:03:52.616Z,0
2018-10-11T01:04:52.664Z,0
2018-10-11T01:05:52.609Z,0
2018-10-11T01:06:52.599Z,0
2018-10-11T01:07:52.083Z,0
2018-10-11T01:08:52.327Z,0
2018-10-11T01:09:52.720Z,0
2018-10-11T01:10:52.578Z,0
2018-10-11T01:11:52.558Z,0
2018-10-11T01:12:52.552Z,0
2018-10-11T01:13:52.548Z,0
2018-10-11T01:14:52.579Z,0
2018-10-11T01:15:52.277Z,0
2018-10-11T01:16:52.517Z,0
2018-10-11T01:17:52.263Z,0
2018-10-11T01:18:52.256Z,0
2018-10-11T01:19:52.499Z,0
2018-10-11T01:20:52.487Z,0
2018-10-11T01:21:52.222Z,0
2018-10-11T01:22:52.473Z,0
2018-10-11T01:23:52.452Z,0
2018-10-11T01:24:52.458Z,0
2018-10-11T01:25:52.195Z,0
2018-10-11T01:26:51.935Z,0
2018-10-11T01:27:52.475Z,0
2018-10-11T01:28:52.419Z,0
2018-10-11T01:29:52.710Z,0
2018-10-11T01:30:51.902Z,0
2018-10-11T01:31:52.403Z,0
2018-10-11T01:32:52.387Z,0
2018-10-11T01:33:52.383Z,0
2018-10-11T01:34:51.867Z,0
2018-10-11T01:35:52.615Z,0
2018-10-11T01:36:52.356Z,0
2018-10-11T01:37:52.347Z,0
2018-10-11T01:38:52.866Z,0
2018-10-11T01:39:52.330Z,0
2018-10-11T01:40:52.322Z,0
2018-10-11T01:41:52.058Z,0
2018-10-11T01:42:52.303Z,0
2018-10-11T01:43:52.299Z,0
2018-10-11T01:44:52.296Z,0
2018-10-11T01:45:52.286Z,0
2018-10-11T01:46:52.022Z,0
2018-10-11T01:47:52.261Z,0
2018-10-11T01:48:51.751Z,0
2018-10-11T01:49:52.249Z,0
2018-10-11T01:50:52.236Z,0
2018-10-11T01:51:52.231Z,0
2018-10-11T01:52:52.222Z,0
2018-10-11T01:53:52.210Z,0
2018-10-11T01:54:52.204Z,0
2018-10-11T01:55:52.206Z,0
2018-10-11T01:56:52.594Z,0
2018-10-11T01:57:51.677Z,0
2018-10-11T01:58:51.927Z,0
2018-10-11T01:59:51.920Z,0
2018-10-11T02:00:52.157Z,0
2018-10-11T02:01:52.145Z,0
2018-10-11T02:02:51.884Z,0
2018-10-11T02:03:52.136Z,0
2018-10-11T02:04:51.866Z,0
2018-10-11T02:05:51.859Z,0
2018-10-11T02:06:52.104Z,0
2018-10-11T02:07:51.846Z,0
2018-10-11T02:08:51.834Z,0
2018-10-11T02:09:51.575Z,0
2018-10-11T02:10:52.074Z,0
2018-10-11T02:11:51.826Z,0
2018-10-11T02:12:51.801Z,0
2018-10-11T02:13:51.790Z,0
2018-10-11T02:14:52.049Z,0
2018-10-11T02:15:52.025Z,0
2018-10-11T02:16:51.762Z,0
2018-10-11T02:17:52.014Z,0
2018-10-11T02:18:51.745Z,0
2018-10-11T02:19:51.738Z,0
2018-10-11T02:20:51.986Z,0
2018-10-11T02:21:51.978Z,0
2018-10-11T02:22:52.273Z,0
2018-10-11T02:23:51.966Z,0
2018-10-11T02:24:51.703Z,0
2018-10-11T02:25:51.943Z,0
2018-10-11T02:26:51.937Z,0
2018-10-11T02:27:51.929Z,0
2018-10-11T02:28:51.667Z,0
2018-10-11T02:29:51.911Z,0
2018-10-11T02:30:51.899Z,0
2018-10-11T02:31:52.027Z,0
2018-10-11T02:32:51.874Z,0
2018-10-11T02:33:51.368Z,0
2018-10-11T02:34:51.610Z,0
2018-10-11T02:35:51.348Z,0
2018-10-11T02:36:51.340Z,0
2018-10-11T02:37:51.853Z,0
2018-10-11T02:38:51.835Z,0
2018-10-11T02:39:51.318Z,0
2018-10-11T02:40:51.810Z,0
2018-10-11T02:41:51.803Z,0
2018-10-11T02:42:51.546Z,0
2018-10-11T02:43:51.782Z,0
2018-10-11T02:44:51.527Z,0
2018-10-11T02:45:51.509Z,0
2018-10-11T02:46:51.754Z,0
2018-10-11T02:47:51.748Z,0
2018-10-11T02:48:51.748Z,0
2018-10-11T02:49:51.229Z,0
2018-10-11T02:50:51.216Z,0
2018-10-11T02:51:51.456Z,0
2018-10-11T02:52:51.454Z,0
2018-10-11T02:53:51.713Z,0
2018-10-11T02:54:51.687Z,0
2018-10-11T02:55:51.424Z,0
2018-10-11T02:56:51.669Z,0
2018-10-11T02:57:51.410Z,0
2018-10-11T02:58:51.399Z,0
2018-10-11T02:59:51.392Z,0
2018-10-11T03:00:51.640Z,0
2018-10-11T03:01:51.628Z,0
2018-10-11T03:02:51.368Z,0
2018-10-11T03:03:51.615Z,0
2018-10-11T03:04:51.344Z,0
2018-10-11T03:05:51.341Z,0
2018-10-11T03:06:51.074Z,0
2018-10-11T03:07:51.566Z,0
2018-10-11T03:08:51.308Z,0
2018-10-11T03:09:51.814Z,0
2018-10-11T03:10:51.545Z,0
2018-10-11T03:11:51.027Z,0
2018-10-11T03:12:51.525Z,0
2018-10-11T03:13:51.265Z,0
2018-10-11T03:14:51.508Z,0
2018-10-11T03:15:51.248Z,0
2018-10-11T03:16:51.243Z,0
2018-10-11T03:17:50.981Z,0
2018-10-11T03:18:51.485Z,0
2018-10-11T03:19:51.465Z,0
2018-10-11T03:20:51.206Z,0
2018-10-11T03:21:51.200Z,0
2018-10-11T03:22:51.444Z,0
2018-10-11T03:23:51.435Z,0
2018-10-11T03:24:51.421Z,0
2018-10-11T03:25:51.408Z,0
2018-10-11T03:26:51.411Z,0
2018-10-11T03:27:51.391Z,0
2018-10-11T03:28:51.133Z,0
2018-10-11T03:29:51.121Z,0
2018-10-11T03:30:51.390Z,0
2018-10-11T03:31:51.399Z,0
2018-10-11T03:32:51.095Z,0
2018-10-11T03:33:51.338Z,0
2018-10-11T03:34:51.343Z,0
2018-10-11T03:35:51.325Z,0
2018-10-11T03:36:51.311Z,0
2018-10-11T03:37:51.315Z,0
2018-10-11T03:38:51.300Z,0
2018-10-11T03:39:51.292Z,0
2018-10-11T03:40:51.536Z,0
2018-10-11T03:41:51.285Z,0
2018-10-11T03:42:51.262Z,0
2018-10-11T03:43:51.249Z,0
2018-10-11T03:44:51.243Z,0
2018-10-11T03:45:50.984Z,0
2018-10-11T03:46:51.242Z,0
2018-10-11T03:47:51.232Z,0
2018-10-11T03:48:50.958Z,0
2018-10-11T03:49:51.201Z,0
2018-10-11T03:50:51.233Z,0
2018-10-11T03:51:51.187Z,0
2018-10-11T03:52:51.180Z,0
2018-10-11T03:53:51.166Z,0
2018-10-11T03:54:51.172Z,0
2018-10-11T03:55:50.902Z,0
2018-10-11T03:56:50.890Z,0
2018-10-11T03:57:51.129Z,0
2018-10-11T03:58:51.131Z,0
2018-10-11T03:59:51.111Z,0
2018-10-11T04:00:51.104Z,0
2018-10-11T04:01:51.097Z,0
2018-10-11T04:02:50.835Z,0
2018-10-11T04:03:50.832Z,0
2018-10-11T04:04:51.122Z,0
2018-10-11T04:05:51.060Z,0
2018-10-11T04:06:50.802Z,0
2018-10-11T04:07:51.045Z,0
2018-10-11T04:08:51.040Z,0
2018-10-11T04:09:51.037Z,0
2018-10-11T04:10:51.022Z,0
2018-10-11T04:11:51.010Z,0
2018-10-11T04:12:50.752Z,0
2018-10-11T04:13:50.741Z,0
2018-10-11T04:14:50.739Z,0
2018-10-11T04:15:51.183Z,0
2018-10-11T04:16:50.968Z,0
2018-10-11T04:17:50.955Z,0
2018-10-11T04:18:50.741Z,0
2018-10-11T04:19:50.434Z,16
2018-10-11T04:20:50.933Z,32
2018-10-11T04:21:50.935Z,36
2018-10-11T04:22:50.659Z,40
2018-10-11T04:23:50.902Z,36
2018-10-11T04:24:50.901Z,36
2018-10-11T04:25:50.641Z,40
2018-10-11T04:26:50.628Z,40
2018-10-11T04:27:50.620Z,40
2018-10-11T04:28:50.613Z,40
2018-10-11T04:29:50.852Z,40
2018-10-11T04:30:50.843Z,40
2018-10-11T04:31:50.578Z,40
2018-10-11T04:32:50.584Z,40
2018-10-11T04:33:50.811Z,40
2018-10-11T04:34:50.558Z,40
2018-10-11T04:35:50.552Z,40
2018-10-11T04:36:50.789Z,40
2018-10-11T04:37:50.787Z,40
2018-10-11T04:38:50.769Z,40
2018-10-11T04:39:50.767Z,40
2018-10-11T04:40:50.498Z,40
2018-10-11T04:41:50.750Z,0
2018-10-11T04:42:51.290Z,0
2018-10-11T04:43:50.730Z,0
2018-10-11T04:44:50.718Z,0
2018-10-11T04:45:50.714Z,0
2018-10-11T04:46:50.696Z,4
2018-10-11T04:47:50.697Z,4
2018-10-11T04:48:50.430Z,0
2018-10-11T04:49:50.671Z,4
2018-10-11T04:50:50.658Z,4
2018-10-11T04:51:50.397Z,4
2018-10-11T04:52:50.654Z,4
2018-10-11T04:53:50.279Z,4
2018-10-11T04:54:50.382Z,4
2018-10-11T04:55:50.623Z,8
2018-10-11T04:56:50.610Z,8
2018-10-11T04:57:50.596Z,8
2018-10-11T04:58:50.594Z,16
2018-10-11T04:59:51.007Z,16
2018-10-11T05:00:50.579Z,20
2018-10-11T05:01:50.315Z,24
2018-10-11T05:02:50.300Z,28
2018-10-11T05:03:50.289Z,36
2018-10-11T05:04:50.282Z,40
2018-10-11T05:05:50.273Z,44
2018-10-11T05:06:50.515Z,52
2018-10-11T05:07:50.512Z,64
2018-10-11T05:08:50.246Z,92
2018-10-11T05:09:50.489Z,112
2018-10-11T05:10:50.476Z,128
2018-10-11T05:11:50.469Z,144
2018-10-11T05:12:50.212Z,156
2018-10-11T05:13:50.202Z,136
2018-10-11T05:14:50.194Z,152
2018-10-11T05:15:50.186Z,172
2018-10-11T05:16:50.172Z,192
2018-10-11T05:17:50.439Z,212
2018-10-11T05:18:50.403Z,240
2018-10-11T05:19:50.146Z,264
2018-10-11T05:20:50.134Z,292
2018-10-11T05:21:50.377Z,320
2018-10-11T05:22:50.376Z,352
2018-10-11T05:23:50.363Z,384
2018-10-11T05:24:50.106Z,416
2018-10-11T05:25:50.087Z,456
2018-10-11T05:26:50.081Z,492
2018-10-11T05:27:50.331Z,528
2018-10-11T05:28:50.337Z,564
2018-10-11T05:29:50.344Z,604
2018-10-11T05:30:49.798Z,644
2018-10-11T05:31:49.781Z,684
2018-10-11T05:32:50.290Z,724
2018-10-11T05:33:50.032Z,756
2018-10-11T05:34:50.014Z,800
2018-10-11T05:35:50.259Z,856
2018-10-11T05:36:49.988Z,928
2018-10-11T05:37:50.231Z,996
2018-10-11T05:38:50.230Z,1044
2018-10-11T05:39:50.228Z,1084
2018-10-11T05:40:50.227Z,1120
2018-10-11T05:41:49.941Z,1204
2018-10-11T05:42:49.939Z,1320
2018-10-11T05:43:49.932Z,1400
2018-10-11T05:44:50.177Z,1496
2018-10-11T05:45:50.163Z,1576
2018-10-11T05:46:50.157Z,1644
2018-10-11T05:47:50.143Z,1720
2018-10-11T05:48:49.885Z,1764
2018-10-11T05:49:50.124Z,1860
2018-10-11T05:50:49.865Z,2004
2018-10-11T05:51:49.601Z,2144
2018-10-11T05:52:50.128Z,2228
2018-10-11T05:53:50.091Z,2328
2018-10-11T05:54:50.088Z,2416
2018-10-11T05:55:49.821Z,2532
2018-10-11T05:56:50.210Z,2664
2018-10-11T05:57:50.056Z,2792
2018-10-11T05:58:50.048Z,2900
2018-10-11T05:59:50.052Z,3008
2018-10-11T06:00:50.041Z,3120
2018-10-11T06:01:50.031Z,3228
2018-10-11T06:02:50.034Z,3340
2018-10-11T06:03:50.016Z,3464
2018-10-11T06:04:49.752Z,3568
2018-10-11T06:05:49.743Z,3660
2018-10-11T06:06:49.750Z,3720
2018-10-11T06:07:49.731Z,3836
2018-10-11T06:08:49.972Z,3948
2018-10-11T06:09:49.709Z,3972
2018-10-11T06:10:49.969Z,4052
2018-10-11T06:11:50.106Z,4276
2018-10-11T06:12:49.946Z,4476
2018-10-11T06:13:49.938Z,4544
2018-10-11T06:14:49.930Z,4648
2018-10-11T06:15:49.682Z,4920
2018-10-11T06:16:50.209Z,5168
2018-10-11T06:17:50.171Z,5364
2018-10-11T06:18:49.900Z,5092
2018-10-11T06:19:49.895Z,5084
2018-10-11T06:20:49.638Z,4720
2018-10-11T06:21:49.886Z,4604
2018-10-11T06:22:49.971Z,5108
2018-10-11T06:23:49.872Z,5524
2018-10-11T06:24:50.259Z,5988
2018-10-11T06:25:49.864Z,6292
2018-10-11T06:26:49.602Z,6484
2018-10-11T06:27:49.888Z,6624
2018-10-11T06:28:49.588Z,6704
2018-10-11T06:29:49.585Z,6924
2018-10-11T06:30:49.588Z,7200
2018-10-11T06:31:49.575Z,7232
2018-10-11T06:32:49.819Z,7344
2018-10-11T06:33:49.812Z,7436
2018-10-11T06:34:49.308Z,7724
2018-10-11T06:35:50.077Z,7816
2018-10-11T06:36:49.727Z,7828
2018-10-11T06:37:49.540Z,7976
2018-10-11T06:38:49.803Z,8392
2018-10-11T06:39:49.787Z,8972
2018-10-11T06:40:49.531Z,9680
2018-10-11T06:41:50.108Z,10076
2018-10-11T06:42:50.329Z,10276
2018-10-11T06:43:49.775Z,10420
2018-10-11T06:44:49.774Z,10680
2018-10-11T06:45:49.794Z,10776
2018-10-11T06:46:49.254Z,11044
2018-10-11T06:47:50.005Z,10792
2018-10-11T06:48:49.760Z,8956
2018-10-11T06:49:50.012Z,9648
2018-10-11T06:50:49.748Z,12204
2018-10-11T06:51:49.235Z,12928
2018-10-11T06:52:49.492Z,13312
2018-10-11T06:53:49.734Z,13312
2018-10-11T06:54:49.733Z,13472
2018-10-11T06:55:49.265Z,13600
2018-10-11T06:56:49.473Z,13664
2018-10-11T06:57:49.726Z,14176
2018-10-11T06:58:49.215Z,14592
2018-10-11T06:59:49.718Z,13728
2018-10-11T07:00:49.466Z,12608
2018-10-11T07:01:49.998Z,12232
2018-10-11T07:02:49.461Z,12452
2018-10-11T07:03:49.481Z,11932
2018-10-11T07:04:49.704Z,11888
2018-10-11T07:05:49.700Z,12364
2018-10-11T07:06:49.698Z,12868
2018-10-11T07:07:49.697Z,12736
2018-10-11T07:08:49.451Z,12980
2018-10-11T07:09:49.458Z,13044
2018-10-11T07:10:49.441Z,13032
2018-10-11T07:11:49.183Z,13376
2018-10-11T07:12:49.176Z,13824
2018-10-11T07:13:49.474Z,13924
2018-10-11T07:14:49.427Z,13940
2018-10-11T07:15:49.174Z,13832
2018-10-11T07:16:49.687Z,14208
2018-10-11T07:17:49.677Z,14976
2018-10-11T07:18:49.678Z,14912
2018-10-11T07:19:49.678Z,15200
2018-10-11T07:20:49.670Z,15168
2018-10-11T07:21:49.411Z,14848
2018-10-11T07:22:49.659Z,14464
2018-10-11T07:23:49.659Z,15040
2018-10-11T07:24:49.662Z,15264
2018-10-11T07:25:49.812Z,14848
2018-10-11T07:26:49.148Z,15488
2018-10-11T07:27:49.398Z,15968
2018-10-11T07:28:49.411Z,15712
2018-10-11T07:29:49.657Z,16384
2018-10-11T07:30:49.645Z,16480
2018-10-11T07:31:49.642Z,15904
2018-10-11T07:32:49.648Z,16704
2018-10-11T07:33:49.638Z,17184
2018-10-11T07:34:50.752Z,15680
2018-10-11T07:35:49.130Z,10992
2018-10-11T07:36:49.382Z,5908
2018-10-11T07:37:49.376Z,5436
2018-10-11T07:38:49.375Z,5396
2018-10-11T07:39:49.119Z,5376
2018-10-11T07:40:49.555Z,5344
2018-10-11T07:41:49.621Z,5356
2018-10-11T07:42:49.617Z,5360
2018-10-11T07:43:49.612Z,5348
2018-10-11T07:44:49.608Z,5356
2018-10-11T07:45:49.358Z,5360
2018-10-11T07:46:49.601Z,5372
2018-10-11T07:47:49.346Z,5364
2018-10-11T07:48:49.351Z,5344
2018-10-11T07:49:49.845Z,5352
2018-10-11T07:50:49.594Z,5380
2018-10-11T07:51:49.080Z,5376
2018-10-11T07:52:49.745Z,5400
2018-10-11T07:53:49.583Z,5328
2018-10-11T07:54:49.587Z,5308
2018-10-11T07:55:49.323Z,5316
2018-10-11T07:56:49.566Z,5312
2018-10-11T07:57:49.564Z,5320
2018-10-11T07:58:49.561Z,5328
2018-10-11T07:59:49.620Z,5332
2018-10-11T08:00:49.550Z,5324
2018-10-11T08:01:49.654Z,5320
2018-10-11T08:02:49.564Z,5312
2018-10-11T08:03:49.285Z,5312
2018-10-11T08:04:49.551Z,5308
2018-10-11T08:05:49.536Z,5304
2018-10-11T08:06:49.535Z,5304
2018-10-11T08:07:49.809Z,5296
2018-10-11T08:08:49.566Z,5276
2018-10-11T08:09:49.516Z,5272
2018-10-11T08:10:50.086Z,5264
2018-10-11T08:11:50.072Z,5244
2018-10-11T08:12:49.513Z,5228
2018-10-11T08:13:49.463Z,5224
2018-10-11T08:14:49.488Z,5220
2018-10-11T08:15:49.268Z,5204
2018-10-11T08:16:50.057Z,5208
2018-10-11T08:17:51.977Z,5208
2018-10-11T08:18:49.579Z,5216
2018-10-11T08:19:49.785Z,5204
2018-10-11T08:20:49.500Z,5212
2018-10-11T08:21:50.126Z,5220
2018-10-11T08:22:49.203Z,5208
2018-10-11T08:23:49.453Z,5196
2018-10-11T08:24:49.594Z,5180
2018-10-11T08:25:51.610Z,5160
2018-10-11T08:26:49.866Z,5156
2018-10-11T08:27:49.433Z,5160
2018-10-11T08:28:48.922Z,5056
2018-10-11T08:29:49.424Z,5052
2018-10-11T08:30:49.423Z,5036
2018-10-11T08:31:49.826Z,5028
2018-10-11T08:32:49.881Z,5028
2018-10-11T08:33:49.413Z,5020
2018-10-11T08:34:49.149Z,5008
2018-10-11T08:35:49.402Z,5008
2018-10-11T08:36:49.147Z,4992
2018-10-11T08:37:49.968Z,4988
2018-10-11T08:38:49.551Z,4988
2018-10-11T08:39:49.125Z,4964
2018-10-11T08:40:49.377Z,4960
2018-10-11T08:41:49.378Z,4948
2018-10-11T08:42:49.366Z,4948
2018-10-11T08:43:49.271Z,4936
2018-10-11T08:44:49.102Z,4932
2018-10-11T08:45:49.106Z,4896
2018-10-11T08:46:49.363Z,4852
2018-10-11T08:47:49.346Z,4880
2018-10-11T08:48:49.347Z,4892
2018-10-11T08:49:49.341Z,4876
2018-10-11T08:50:49.023Z,4860
2018-10-11T08:51:49.330Z,4840
2018-10-11T08:52:49.075Z,4820
2018-10-11T08:53:49.677Z,4836
2018-10-11T08:54:49.425Z,4816
2018-10-11T08:55:49.943Z,4820
2018-10-11T08:56:49.066Z,4792
2018-10-11T08:57:49.462Z,4756
2018-10-11T08:58:49.306Z,4768
2018-10-11T08:59:49.833Z,4760
2018-10-11T09:00:49.303Z,4764
2018-10-11T09:01:49.050Z,4752
2018-10-11T09:02:49.041Z,4748
2018-10-11T09:03:50.237Z,4760
2018-10-11T09:04:49.035Z,4708
2018-10-11T09:05:49.029Z,4716
2018-10-11T09:06:49.025Z,4748
2018-10-11T09:07:49.043Z,4736
2018-10-11T09:08:49.022Z,4752
2018-10-11T09:09:56.231Z,4756
2018-10-11T09:10:49.528Z,4672
2018-10-11T09:11:49.268Z,4616
2018-10-11T09:12:49.003Z,4612
2018-10-11T09:13:49.258Z,4652
2018-10-11T09:14:48.745Z,4692
2018-10-11T09:15:48.996Z,4716
2018-10-11T09:16:49.259Z,4676
2018-10-11T09:17:49.239Z,4648
2018-10-11T09:18:49.255Z,4576
2018-10-11T09:19:49.235Z,4568
2018-10-11T09:20:48.985Z,4532
2018-10-11T09:21:48.726Z,4524
2018-10-11T09:22:49.223Z,4572
2018-10-11T09:23:48.973Z,4636
2018-10-11T09:24:48.974Z,4640
2018-10-11T09:25:48.715Z,4584
2018-10-11T09:26:49.219Z,4528
2018-10-11T09:27:48.961Z,4476
2018-10-11T09:28:48.701Z,4468
2018-10-11T09:29:49.218Z,4504
2018-10-11T09:30:49.209Z,4576
2018-10-11T09:31:48.949Z,4600
2018-10-11T09:32:49.583Z,4592
2018-10-11T09:33:49.203Z,4576
2018-10-11T09:34:48.936Z,4544
2018-10-11T09:35:49.183Z,4496
2018-10-11T09:36:48.681Z,4456
2018-10-11T09:37:49.182Z,4452
2018-10-11T09:38:49.179Z,4492
2018-10-11T09:39:49.182Z,4508
2018-10-11T09:40:49.172Z,4492
2018-10-11T09:41:49.179Z,4472
2018-10-11T09:42:48.925Z,4488
2018-10-11T09:43:49.170Z,4452
2018-10-11T09:44:49.167Z,4396
2018-10-11T09:45:49.160Z,4404
2018-10-11T09:46:49.163Z,4428
2018-10-11T09:47:48.905Z,4436
2018-10-11T09:48:49.063Z,4448
2018-10-11T09:49:48.900Z,4456
2018-10-11T09:50:49.146Z,4432
2018-10-11T09:51:49.141Z,4376
2018-10-11T09:52:49.147Z,4388
2018-10-11T09:53:48.883Z,4420
2018-10-11T09:54:49.085Z,4424
2018-10-11T09:55:49.134Z,4380
2018-10-11T09:56:49.130Z,4348
2018-10-11T09:57:49.131Z,4348
2018-10-11T09:58:49.125Z,4344
2018-10-11T09:59:49.118Z,4336
2018-10-11T10:00:49.168Z,4328
2018-10-11T10:01:48.866Z,4332
2018-10-11T10:02:48.874Z,4352
2018-10-11T10:03:48.604Z,4368
2018-10-11T10:04:49.106Z,4372
2018-10-11T10:05:48.597Z,4340
2018-10-11T10:06:49.099Z,4316
2018-10-11T10:07:49.108Z,4336
2018-10-11T10:08:48.596Z,4360
2018-10-11T10:09:48.661Z,4352
2018-10-11T10:10:48.585Z,4340
2018-10-11T10:11:49.090Z,4288
2018-10-11T10:12:49.450Z,4196
2018-10-11T10:13:49.083Z,4180
2018-10-11T10:14:48.579Z,4244
2018-10-11T10:15:49.004Z,4308
2018-10-11T10:16:48.572Z,4332
2018-10-11T10:17:49.076Z,4332
2018-10-11T10:18:48.814Z,4348
2018-10-11T10:19:49.075Z,4376
2018-10-11T10:20:48.842Z,4336
2018-10-11T10:21:49.477Z,4280
2018-10-11T10:22:49.061Z,4276
2018-10-11T10:23:49.058Z,4288
2018-10-11T10:24:48.799Z,4260
2018-10-11T10:25:49.049Z,4236
2018-10-11T10:26:48.688Z,4244
2018-10-11T10:27:49.045Z,4264
2018-10-11T10:28:48.539Z,4232
2018-10-11T10:29:48.790Z,4212
2018-10-11T10:30:48.792Z,4180
2018-10-11T10:31:48.786Z,4172
2018-10-11T10:32:49.038Z,4188
2018-10-11T10:33:48.826Z,4228
2018-10-11T10:34:49.034Z,4228
2018-10-11T10:35:49.029Z,4160
2018-10-11T10:36:48.575Z,4068
2018-10-11T10:37:48.766Z,4044
2018-10-11T10:38:48.763Z,4092
2018-10-11T10:39:49.203Z,4128
2018-10-11T10:40:48.510Z,4128
2018-10-11T10:41:49.010Z,4104
2018-10-11T10:42:49.010Z,4068
2018-10-11T10:43:48.503Z,4016
2018-10-11T10:44:49.003Z,4004
2018-10-11T10:45:48.999Z,4028
2018-10-11T10:46:48.756Z,4016
2018-10-11T10:47:48.996Z,4020
2018-10-11T10:48:49.247Z,4012
2018-10-11T10:49:48.991Z,4016
2018-10-11T10:50:48.738Z,4028
2018-10-11T10:51:48.988Z,4052
2018-10-11T10:52:48.741Z,4056
2018-10-11T10:53:48.982Z,4044
2018-10-11T10:54:48.981Z,4020
2018-10-11T10:55:48.476Z,4004
2018-10-11T10:56:48.973Z,3988
2018-10-11T10:57:48.727Z,3972
2018-10-11T10:58:48.718Z,3980
2018-10-11T10:59:48.972Z,3996
2018-10-11T11:00:48.970Z,4016
2018-10-11T11:01:48.969Z,4036
2018-10-11T11:02:48.723Z,4028
2018-10-11T11:03:48.709Z,4000
2018-10-11T11:04:48.451Z,3956
2018-10-11T11:05:48.954Z,3952
2018-10-11T11:06:48.452Z,3996
2018-10-11T11:07:48.697Z,4040
2018-10-11T11:08:48.695Z,4052
2018-10-11T11:09:48.698Z,4060
2018-10-11T11:10:48.942Z,4072
2018-10-11T11:11:48.688Z,4072
2018-10-11T11:12:48.939Z,4064
2018-10-11T11:13:48.932Z,4056
2018-10-11T11:14:48.435Z,4060
2018-10-11T11:15:48.437Z,4060
2018-10-11T11:16:48.934Z,4060
2018-10-11T11:17:48.963Z,4044
2018-10-11T11:18:48.461Z,3996
2018-10-11T11:19:48.420Z,3944
2018-10-11T11:20:48.939Z,3936
2018-10-11T11:21:48.671Z,3960
2018-10-11T11:22:48.412Z,3988
2018-10-11T11:23:48.667Z,3984
2018-10-11T11:24:48.661Z,3980
2018-10-11T11:25:48.663Z,3968
2018-10-11T11:26:48.909Z,3940
2018-10-11T11:27:48.663Z,3944
2018-10-11T11:28:48.652Z,3944
2018-10-11T11:29:48.917Z,3940
2018-10-11T11:30:48.647Z,3928
2018-10-11T11:31:48.658Z,3908
2018-10-11T11:32:48.392Z,3896
2018-10-11T11:33:48.642Z,3900
2018-10-11T11:34:48.645Z,3904
2018-10-11T11:35:48.641Z,3900
2018-10-11T11:36:48.892Z,3868
2018-10-11T11:37:48.888Z,3848
2018-10-11T11:38:48.630Z,3848
2018-10-11T11:39:48.632Z,3852
2018-10-11T11:40:48.377Z,3848
2018-10-11T11:41:48.887Z,3852
2018-10-11T11:42:48.376Z,3844
2018-10-11T11:43:48.882Z,3828
2018-10-11T11:44:48.877Z,3808
2018-10-11T11:45:49.104Z,3804
2018-10-11T11:46:48.937Z,3800
2018-10-11T11:47:48.618Z,3808
2018-10-11T11:48:48.870Z,3816
2018-10-11T11:49:48.865Z,3820
2018-10-11T11:50:48.382Z,3828
2018-10-11T11:51:48.865Z,3832
2018-10-11T11:52:48.612Z,3816
2018-10-11T11:53:48.862Z,3792
2018-10-11T11:54:48.856Z,3784
2018-10-11T11:55:48.611Z,3780
2018-10-11T11:56:48.868Z,3776
2018-10-11T11:57:48.348Z,3760
2018-10-11T11:58:48.599Z,3748
2018-10-11T11:59:48.594Z,3828
2018-10-11T12:00:48.592Z,3824
2018-10-11T12:01:48.595Z,3820
2018-10-11T12:02:49.190Z,3808
2018-10-11T12:03:48.588Z,3804
2018-10-11T12:04:48.584Z,3800
2018-10-11T12:05:48.331Z,3804
2018-10-11T12:06:48.836Z,3804
2018-10-11T12:07:48.584Z,3804
2018-10-11T12:08:48.579Z,3804
2018-10-11T12:09:48.581Z,3804
2018-10-11T12:10:48.391Z,3804
2018-10-11T12:11:48.583Z,3788
2018-10-11T12:12:48.321Z,3776
2018-10-11T12:13:48.570Z,3744
2018-10-11T12:14:48.829Z,3720
2018-10-11T12:15:48.572Z,3708
2018-10-11T12:16:49.307Z,3712
2018-10-11T12:17:48.567Z,3720
2018-10-11T12:18:48.566Z,3728
2018-10-11T12:19:48.815Z,3720
2018-10-11T12:20:48.665Z,3716
2018-10-11T12:21:48.563Z,3712
2018-10-11T12:22:48.814Z,3700
2018-10-11T12:23:48.557Z,3692
2018-10-11T12:24:48.679Z,3684
2018-10-11T12:25:48.577Z,3680
2018-10-11T12:26:48.558Z,3680
2018-10-11T12:27:48.810Z,3684
2018-10-11T12:28:49.335Z,3692
2018-10-11T12:29:48.804Z,3696
2018-10-11T12:30:48.296Z,3688
2018-10-11T12:31:48.543Z,3680
2018-10-11T12:32:48.546Z,3680
2018-10-11T12:33:48.541Z,3672
2018-10-11T12:34:48.802Z,3668
2018-10-11T12:35:48.290Z,3660
2018-10-11T12:36:48.547Z,3648
2018-10-11T12:37:48.815Z,3640
2018-10-11T12:38:49.256Z,3640
2018-10-11T12:39:48.534Z,3644
2018-10-11T12:40:48.548Z,3652
2018-10-11T12:41:48.570Z,3660
2018-10-11T12:42:48.285Z,3656
2018-10-11T12:43:48.533Z,3648
2018-10-11T12:44:48.790Z,3644
2018-10-11T12:45:48.348Z,3640
2018-10-11T12:46:49.269Z,3636
2018-10-11T12:47:48.538Z,3636
2018-10-11T12:48:48.775Z,3636
2018-10-11T12:49:53.756Z,3624
2018-10-11T12:50:48.829Z,3608
2018-10-11T12:51:49.171Z,3596
2018-10-11T12:52:48.774Z,3588
2018-10-11T12:53:52.496Z,3588
2018-10-11T12:54:48.535Z,3576
2018-10-11T12:55:48.786Z,3572
2018-10-11T12:56:49.780Z,3576
2018-10-11T12:57:48.720Z,3576
2018-10-11T12:58:48.527Z,3572
2018-10-11T12:59:48.770Z,3572
2018-10-11T13:00:49.018Z,3572
2018-10-11T13:01:48.506Z,3568
2018-10-11T13:02:49.174Z,3564
2018-10-11T13:03:48.503Z,3560
2018-10-11T13:04:48.781Z,3556
2018-10-11T13:05:48.796Z,3552
2018-10-11T13:06:48.760Z,3544
2018-10-11T13:07:48.754Z,3544
2018-10-11T13:08:48.252Z,3540
2018-10-11T13:09:48.762Z,3544
2018-10-11T13:10:48.786Z,3548
2018-10-11T13:11:48.759Z,3540
2018-10-11T13:12:48.749Z,3532
2018-10-11T13:13:55.454Z,3524
2018-10-11T13:14:48.505Z,3520
2018-10-11T13:15:49.469Z,3520
2018-10-11T13:16:48.743Z,3512
2018-10-11T13:17:48.244Z,3504
2018-10-11T13:18:48.744Z,3504
2018-10-11T13:19:48.238Z,3492
2018-10-11T13:20:48.747Z,3476
2018-10-11T13:21:48.734Z,3468
2018-10-11T13:22:49.008Z,3460
2018-10-11T13:23:48.483Z,3460
2018-10-11T13:24:54.103Z,3468
2018-10-11T13:25:48.488Z,3472
2018-10-11T13:26:48.484Z,3472
2018-10-11T13:27:48.982Z,3472
2018-10-11T13:28:48.944Z,3464
2018-10-11T13:29:48.483Z,3464
2018-10-11T13:30:48.403Z,3460
2018-10-11T13:31:48.475Z,3456
2018-10-11T13:32:48.227Z,3460
2018-10-11T13:33:51.301Z,3460
2018-10-11T13:34:49.301Z,3456
2018-10-11T13:35:48.518Z,3456
2018-10-11T13:36:48.479Z,3444
2018-10-11T13:37:48.477Z,3440
2018-10-11T13:38:48.727Z,3428
2018-10-11T13:39:58.090Z,3408
2018-10-11T13:40:49.914Z,3400
2018-10-11T13:41:49.783Z,3384
2018-10-11T13:42:48.466Z,3364
2018-10-11T13:43:48.463Z,3364
2018-10-11T13:44:48.464Z,3368
2018-10-11T13:45:52.471Z,3368
2018-10-11T13:46:48.214Z,3368
2018-10-11T13:47:50.279Z,3356